createdAt,value
2018-04-24T00:01:10.540Z,5.90
2018-04-24T00:03:38.067Z,6.57
2018-04-24T00:06:05.581Z,6.33
2018-04-24T00:08:33.104Z,6.80
2018-04-24T00:11:00.620Z,6.70
2018-04-24T00:13:28.150Z,6.17
2018-04-24T00:15:56.428Z,7.60
2018-04-24T00:18:23.984Z,6.50
2018-04-24T00:20:52.266Z,7.17
2018-04-24T00:23:20.546Z,6.40
2018-04-24T00:25:48.848Z,6.20
2018-04-24T00:28:16.367Z,6.73
2018-04-24T00:30:43.896Z,6.17
2018-04-24T00:33:11.409Z,7.30
2018-04-24T00:35:39.728Z,7.30
2018-04-24T00:38:07.238Z,7.50
2018-04-24T00:40:34.726Z,8.73
2018-04-24T00:43:03.030Z,8.10
2018-04-24T00:45:30.603Z,6.87
2018-04-24T00:47:58.152Z,7.57
2018-04-24T00:50:25.705Z,7.20
2018-04-24T00:52:53.228Z,6.97
2018-04-24T00:55:20.749Z,7.47
2018-04-24T01:00:25.487Z,7.40
2018-04-24T01:02:53.767Z,7.47
2018-04-24T01:05:22.059Z,6.77
2018-04-24T01:07:49.587Z,8.60
2018-04-24T01:10:17.132Z,7.30
2018-04-24T01:12:44.642Z,7.93
2018-04-24T01:15:12.913Z,6.73
2018-04-24T01:17:41.197Z,7.00
2018-04-24T01:20:09.475Z,8.00
2018-04-24T01:22:37.783Z,7.77
2018-04-24T01:25:05.308Z,6.53
2018-04-24T01:27:32.839Z,7.50
2018-04-24T01:30:00.339Z,6.23
2018-04-24T01:32:27.859Z,6.63
2018-04-24T01:34:55.399Z,8.27
2018-04-24T01:37:22.920Z,6.63
2018-04-24T01:39:50.439Z,6.60
2018-04-24T01:42:17.949Z,7.63
2018-04-24T01:44:45.559Z,7.03
2018-04-24T01:47:13.076Z,5.67
2018-04-24T01:49:40.626Z,7.33
2018-04-24T01:52:08.132Z,6.67
2018-04-24T01:54:36.404Z,6.10
2018-04-24T01:57:04.710Z,7.27
2018-04-24T01:59:32.278Z,6.90
2018-04-24T02:01:59.794Z,6.10
2018-04-24T02:04:28.088Z,6.17
2018-04-24T02:06:56.379Z,5.60
2018-04-24T02:09:24.664Z,5.80
2018-04-24T02:11:52.971Z,7.00
2018-04-24T02:14:20.488Z,6.37
2018-04-24T02:16:48.765Z,6.40
2018-04-24T02:19:17.786Z,6.30
2018-04-24T02:21:46.071Z,6.60
2018-04-24T02:24:14.363Z,6.20
2018-04-24T02:26:41.885Z,5.77
2018-04-24T02:29:09.411Z,5.97
2018-04-24T02:31:36.917Z,6.10
2018-04-24T02:34:04.447Z,6.30
2018-04-24T02:36:31.970Z,5.13
2018-04-24T02:39:00.241Z,5.90
2018-04-24T02:41:28.518Z,5.37
2018-04-24T02:43:56.796Z,4.83
2018-04-24T02:46:25.092Z,4.57
2018-04-24T02:48:53.390Z,3.40
2018-04-24T02:51:20.917Z,3.70
2018-04-24T02:53:48.428Z,3.17
2018-04-24T02:56:15.948Z,4.30
2018-04-24T02:58:44.246Z,4.60
2018-04-24T03:01:12.555Z,4.53
2018-04-24T03:03:40.079Z,4.70
2018-04-24T03:06:08.415Z,4.67
2018-04-24T03:08:35.955Z,4.10
2018-04-24T03:11:03.469Z,3.90
2018-04-24T03:13:30.976Z,4.40
2018-04-24T03:15:58.492Z,3.93
2018-04-24T03:18:26.006Z,4.40
2018-04-24T03:20:53.532Z,4.10
2018-04-24T03:23:21.819Z,3.83
2018-04-24T03:25:50.120Z,3.67
2018-04-24T03:28:17.624Z,4.00
2018-04-24T03:30:45.165Z,3.70
2018-04-24T03:33:12.688Z,3.13
2018-04-24T03:35:40.204Z,3.50
2018-04-24T03:38:07.753Z,3.17
2018-04-24T03:40:35.316Z,3.87
2018-04-24T03:43:02.844Z,3.70
2018-04-24T03:45:30.363Z,3.90
2018-04-24T03:47:57.896Z,3.90
2018-04-24T03:50:25.429Z,4.30
2018-04-24T03:52:52.944Z,4.27
2018-04-24T03:55:20.474Z,4.30
2018-04-24T03:57:48.744Z,3.97
2018-04-24T04:00:17.036Z,3.53
2018-04-24T04:02:45.346Z,3.47
2018-04-24T04:05:12.938Z,3.70
2018-04-24T04:07:40.515Z,4.60
2018-04-24T04:10:08.012Z,3.83
2018-04-24T04:12:36.287Z,4.13
2018-04-24T04:15:04.564Z,4.27
2018-04-24T04:17:43.755Z,3.63
2018-04-24T04:20:23.122Z,4.10
2018-04-24T04:23:02.684Z,3.97
2018-04-24T04:25:31.185Z,4.30
2018-04-24T04:27:59.101Z,4.13
2018-04-24T04:30:27.401Z,4.13
2018-04-24T04:32:55.698Z,3.80
2018-04-24T04:35:24.003Z,4.10
2018-04-24T04:37:52.129Z,3.43
2018-04-24T04:40:19.632Z,4.40
2018-04-24T04:42:47.156Z,4.20
2018-04-24T04:45:14.676Z,3.93
2018-04-24T04:47:42.206Z,3.83
2018-04-24T04:50:10.497Z,4.60
2018-04-24T04:52:38.771Z,4.20
2018-04-24T04:55:07.187Z,4.17
2018-04-24T04:57:34.697Z,4.70
2018-04-24T05:00:02.227Z,4.70
2018-04-24T05:02:29.771Z,4.50
2018-04-24T05:04:57.301Z,4.87
2018-04-24T05:07:25.610Z,6.03
2018-04-24T05:09:53.182Z,10.50
2018-04-24T05:12:20.713Z,5.07
2018-04-24T05:14:48.990Z,4.97
2018-04-24T05:17:17.304Z,6.00
2018-04-24T05:19:44.822Z,5.77
2018-04-24T05:22:12.352Z,4.90
2018-04-24T05:24:39.895Z,5.50
2018-04-24T05:27:07.410Z,6.00
2018-04-24T05:29:35.710Z,5.87
2018-04-24T05:32:03.214Z,6.63
2018-04-24T05:34:30.742Z,5.57
2018-04-24T05:36:59.008Z,6.37
2018-04-24T05:39:26.551Z,6.47
2018-04-24T05:41:54.060Z,7.30
2018-04-24T05:44:21.571Z,6.70
2018-04-24T05:46:49.097Z,6.80
2018-04-24T05:49:16.612Z,7.10
2018-04-24T05:51:44.148Z,6.20
2018-04-24T05:54:11.679Z,7.60
2018-04-24T05:56:39.967Z,7.40
2018-04-24T05:59:07.485Z,6.83
2018-04-24T06:01:35.018Z,6.53
2018-04-24T06:04:02.534Z,8.77
2018-04-24T06:06:30.066Z,12.47
2018-04-24T06:08:57.616Z,8.47
2018-04-24T06:11:25.130Z,7.97
2018-04-24T06:13:53.420Z,8.17
2018-04-24T06:16:21.718Z,7.70
2018-04-24T06:18:50.021Z,7.40
2018-04-24T06:21:17.551Z,6.77
2018-04-24T06:23:45.838Z,7.67
2018-04-24T06:26:13.380Z,7.60
2018-04-24T06:28:41.695Z,6.33
2018-04-24T06:31:09.977Z,7.57
2018-04-24T06:33:37.514Z,6.60
2018-04-24T06:36:05.841Z,6.90
2018-04-24T06:38:33.357Z,7.40
2018-04-24T06:41:01.647Z,7.90
2018-04-24T06:43:29.954Z,6.70
2018-04-24T06:45:57.491Z,6.90
2018-04-24T06:48:25.785Z,6.67
2018-04-24T06:50:53.303Z,5.40
2018-04-24T06:53:20.813Z,7.10
2018-04-24T06:55:48.348Z,5.67
2018-04-24T06:58:15.884Z,6.77
2018-04-24T07:00:43.503Z,6.30
2018-04-24T07:03:10.982Z,5.50
2018-04-24T07:05:38.502Z,5.77
2018-04-24T07:08:06.805Z,6.50
2018-04-24T07:10:34.321Z,5.50
2018-04-24T07:13:01.882Z,5.83
2018-04-24T07:15:29.398Z,4.87
2018-04-24T07:17:56.981Z,4.63
2018-04-24T07:20:24.508Z,5.30
2018-04-24T07:22:52.781Z,4.93
2018-04-24T07:25:20.312Z,3.90
2018-04-24T07:27:47.830Z,5.53
2018-04-24T07:30:16.134Z,4.50
2018-04-24T07:32:43.658Z,4.70
2018-04-24T07:35:11.952Z,4.00
2018-04-24T07:37:40.236Z,4.27
2018-04-24T07:40:08.533Z,4.70
2018-04-24T07:42:36.057Z,6.10
2018-04-24T07:45:03.581Z,5.00
2018-04-24T07:47:31.116Z,3.80
2018-04-24T07:49:58.631Z,5.00
2018-04-24T07:52:26.155Z,4.40
2018-04-24T07:54:53.678Z,4.07
2018-04-24T07:57:21.224Z,4.80
2018-04-24T07:59:48.726Z,5.23
2018-04-24T08:02:17.002Z,4.20
2018-04-24T08:04:45.292Z,4.40
2018-04-24T08:07:13.559Z,4.43
2018-04-24T08:09:41.852Z,5.40
2018-04-24T08:12:10.150Z,5.33
2018-04-24T08:14:37.674Z,4.53
2018-04-24T08:17:05.183Z,5.73
2018-04-24T08:19:32.706Z,5.43
2018-04-24T08:22:01.016Z,5.13
2018-04-24T08:24:28.539Z,5.20
2018-04-24T08:26:56.843Z,5.60
2018-04-24T08:29:25.123Z,5.20
2018-04-24T08:31:53.416Z,4.97
2018-04-24T08:34:21.679Z,5.40
2018-04-24T08:36:49.986Z,4.63
2018-04-24T08:39:18.285Z,5.10
2018-04-24T08:41:45.796Z,5.50
2018-04-24T08:44:13.347Z,5.13
2018-04-24T08:46:40.857Z,5.70
2018-04-24T08:49:08.404Z,5.90
2018-04-24T08:51:35.937Z,4.67
2018-04-24T08:54:03.461Z,5.80
2018-04-24T08:56:31.163Z,5.40
2018-04-24T08:58:58.531Z,3.93
2018-04-24T09:01:26.061Z,5.00
2018-04-24T09:03:53.583Z,5.63
2018-04-24T09:06:21.890Z,5.07
2018-04-24T09:08:49.410Z,5.53
2018-04-24T09:11:16.917Z,4.60
2018-04-24T09:13:44.456Z,5.33
2018-04-24T09:16:12.733Z,4.77
2018-04-24T09:18:41.036Z,5.07
2018-04-24T09:21:08.554Z,5.20
2018-04-24T09:23:36.103Z,6.97
2018-04-24T09:26:03.637Z,5.30
2018-04-24T09:28:31.149Z,5.40
2018-04-24T09:30:58.678Z,5.60
2018-04-24T09:33:26.278Z,5.87
2018-04-24T09:35:53.745Z,4.87
2018-04-24T09:38:21.263Z,5.77
2018-04-24T09:40:48.798Z,4.27
2018-04-24T09:43:17.075Z,3.80
2018-04-24T09:45:45.385Z,4.20
2018-04-24T09:48:12.931Z,5.00
2018-04-24T09:50:40.467Z,5.50
2018-04-24T09:53:08.775Z,4.57
2018-04-24T09:55:37.050Z,5.17
2018-04-24T09:58:05.351Z,4.60
2018-04-24T10:00:36.646Z,5.00
2018-04-24T10:03:04.163Z,4.50
2018-04-24T10:05:31.686Z,4.97
2018-04-24T10:07:59.197Z,4.20
2018-04-24T10:10:26.745Z,4.20
2018-04-24T10:12:54.270Z,4.37
2018-04-24T10:15:21.799Z,4.23
2018-04-24T10:17:49.307Z,4.60
2018-04-24T10:20:16.837Z,4.00
2018-04-24T10:22:44.361Z,5.30
2018-04-24T10:25:12.674Z,4.17
2018-04-24T10:27:40.185Z,4.43
2018-04-24T10:30:08.476Z,4.50
2018-04-24T10:32:36.759Z,4.77
2018-04-24T10:35:05.058Z,3.93
2018-04-24T10:37:32.615Z,4.93
2018-04-24T10:40:00.104Z,3.70
2018-04-24T10:42:27.624Z,4.03
2018-04-24T10:44:55.898Z,4.63
2018-04-24T10:47:23.431Z,5.03
2018-04-24T10:49:50.950Z,5.40
2018-04-24T10:52:19.246Z,4.43
2018-04-24T10:54:46.837Z,4.77
2018-04-24T10:57:14.350Z,4.77
2018-04-24T10:59:42.641Z,4.23
2018-04-24T11:02:10.165Z,4.20
2018-04-24T11:04:37.720Z,4.20
2018-04-24T11:07:05.229Z,4.77
2018-04-24T11:09:33.498Z,4.23
2018-04-24T11:12:01.789Z,4.57
2018-04-24T11:14:30.061Z,4.33
2018-04-24T11:16:58.356Z,4.30
2018-04-24T11:19:26.638Z,4.27
2018-04-24T11:21:54.176Z,4.10
2018-04-24T11:24:21.704Z,4.30
2018-04-24T11:26:49.277Z,4.17
2018-04-24T11:29:16.778Z,4.17
2018-04-24T11:31:45.056Z,4.23
2018-04-24T11:34:13.353Z,4.57
2018-04-24T11:36:40.949Z,3.83
2018-04-24T11:39:09.196Z,3.67
2018-04-24T11:41:38.450Z,3.00
2018-04-24T11:44:05.957Z,3.70
2018-04-24T11:46:34.261Z,3.37
2018-04-24T11:49:01.780Z,3.67
2018-04-24T11:51:29.304Z,2.93
2018-04-24T11:53:56.809Z,3.70
2018-04-24T11:56:24.459Z,2.90
2018-04-24T11:58:51.973Z,3.63
2018-04-24T12:01:26.208Z,3.83
2018-04-24T12:03:53.738Z,4.00
2018-04-24T12:06:22.013Z,3.70
2018-04-24T12:08:50.328Z,3.60
2018-04-24T12:11:17.843Z,3.30
2018-04-24T12:13:45.380Z,3.40
2018-04-24T12:16:12.891Z,3.60
2018-04-24T12:18:41.205Z,3.47
2018-04-24T12:21:08.727Z,3.43
2018-04-24T12:23:37.005Z,2.13
2018-04-24T12:26:04.533Z,2.80
2018-04-24T12:28:32.053Z,3.10
2018-04-24T12:30:59.605Z,2.43
2018-04-24T12:33:27.895Z,2.90
2018-04-24T12:35:56.230Z,2.83
2018-04-24T12:38:23.757Z,2.50
2018-04-24T12:40:51.286Z,2.50
2018-04-24T12:43:18.821Z,2.67
2018-04-24T12:45:46.348Z,2.10
2018-04-24T12:48:13.894Z,2.10
2018-04-24T12:50:42.179Z,2.40
2018-04-24T12:53:10.484Z,2.93
2018-04-24T12:55:37.997Z,2.50
2018-04-24T12:58:05.541Z,2.50
2018-04-24T13:00:33.058Z,2.30
2018-04-24T13:03:00.575Z,2.53
2018-04-24T13:05:28.145Z,2.70
2018-04-24T13:07:55.661Z,2.30
2018-04-24T13:10:23.184Z,2.00
2018-04-24T13:12:50.729Z,2.50
2018-04-24T13:15:18.245Z,2.20
2018-04-24T13:17:45.774Z,2.20
2018-04-24T13:20:13.281Z,2.50
2018-04-24T13:22:40.784Z,1.80
2018-04-24T13:25:08.325Z,2.90
2018-04-24T13:27:35.843Z,2.60
2018-04-24T13:30:04.136Z,2.43
2018-04-24T13:32:32.390Z,2.43
2018-04-24T13:34:59.951Z,2.07
2018-04-24T13:37:27.460Z,2.50
2018-04-24T13:39:54.974Z,2.10
2018-04-24T13:42:22.514Z,2.50
2018-04-24T13:44:50.046Z,2.73
2018-04-24T13:47:17.555Z,2.30
2018-04-24T13:49:45.080Z,1.83
2018-04-24T13:52:12.623Z,2.23
2018-04-24T13:54:40.928Z,3.13
2018-04-24T13:57:08.458Z,3.20
2018-04-24T13:59:36.754Z,2.33
2018-04-24T14:02:05.057Z,2.33
2018-04-24T14:04:32.648Z,2.40
2018-04-24T14:07:00.178Z,2.13
2018-04-24T14:09:27.718Z,2.43
2018-04-24T14:11:55.997Z,2.43
2018-04-24T14:14:24.287Z,2.40
2018-04-24T14:16:52.600Z,2.27
2018-04-24T14:19:20.870Z,2.23
2018-04-24T14:21:48.507Z,2.30
2018-04-24T14:24:15.945Z,2.30
2018-04-24T14:26:43.481Z,3.13
2018-04-24T14:29:10.999Z,2.50
2018-04-24T14:31:42.477Z,1.80
2018-04-24T14:34:12.845Z,2.50
2018-04-24T14:36:40.505Z,2.77
2018-04-24T14:39:08.037Z,2.33
2018-04-24T14:41:35.554Z,2.13
2018-04-24T14:44:03.895Z,2.77
2018-04-24T14:46:31.408Z,2.60
2018-04-24T14:48:59.711Z,2.53
2018-04-24T14:51:28.009Z,2.53
2018-04-24T14:53:55.523Z,2.70
2018-04-24T14:56:23.048Z,2.03
2018-04-24T14:58:50.556Z,2.57
2018-04-24T15:01:18.105Z,2.50
2018-04-24T15:03:45.656Z,2.17
2018-04-24T15:06:13.168Z,2.73
2018-04-24T15:08:41.464Z,2.70
2018-04-24T15:11:08.984Z,3.63
2018-04-24T15:13:36.534Z,2.10
2018-04-24T15:16:04.048Z,3.67
2018-04-24T15:18:32.343Z,2.13
2018-04-24T15:20:59.883Z,2.87
2018-04-24T15:23:28.201Z,2.10
2018-04-24T15:25:55.724Z,2.47
2018-04-24T15:28:24.021Z,2.60
2018-04-24T15:30:51.561Z,2.27
2018-04-24T15:33:19.083Z,2.80
2018-04-24T15:35:46.615Z,2.40
2018-04-24T15:38:14.135Z,3.00
2018-04-24T15:40:42.452Z,2.70
2018-04-24T15:43:10.747Z,2.40
2018-04-24T15:45:38.268Z,2.20
2018-04-24T15:48:05.847Z,2.20
2018-04-24T15:50:33.328Z,2.80
2018-04-24T15:53:00.860Z,2.70
2018-04-24T15:55:29.879Z,2.87
2018-04-24T15:57:58.175Z,1.90
2018-04-24T16:00:25.699Z,21.07
2018-04-24T16:02:53.249Z,35.97
2018-04-24T16:05:20.764Z,6.13
2018-04-24T16:07:48.303Z,24.03
2018-04-24T16:10:16.597Z,7.80
2018-04-24T16:12:44.872Z,9.90
2018-04-24T16:15:13.180Z,4.43
2018-04-24T16:17:40.745Z,2.27
2018-04-24T16:20:08.259Z,3.80
2018-04-24T16:22:35.795Z,2.97
2018-04-24T16:25:03.327Z,2.00
2018-04-24T16:27:30.858Z,1.90
2018-04-24T16:29:58.473Z,1.93
2018-04-24T16:32:25.999Z,2.00
2018-04-24T16:34:54.289Z,2.27
2018-04-24T16:37:22.600Z,2.10
2018-04-24T16:39:50.118Z,2.53
2018-04-24T16:42:17.658Z,2.70
2018-04-24T16:44:45.175Z,2.17
2018-04-24T16:47:12.703Z,3.53
2018-04-24T16:49:40.234Z,2.40
2018-04-24T16:52:07.761Z,2.70
2018-04-24T16:54:36.067Z,2.10
2018-04-24T16:57:03.590Z,2.80
2018-04-24T16:59:31.926Z,1.90
2018-04-24T17:01:59.440Z,2.40
2018-04-24T17:04:27.721Z,2.20
2018-04-24T17:06:56.019Z,2.93
2018-04-24T17:09:23.533Z,2.00
2018-04-24T17:11:51.059Z,2.30
2018-04-24T17:14:18.625Z,2.47
2018-04-24T17:16:46.195Z,1.87
2018-04-24T17:19:14.569Z,2.13
2018-04-24T17:21:42.093Z,1.50
2018-04-24T17:24:09.633Z,3.30
2018-04-24T17:26:37.151Z,2.13
2018-04-24T17:29:04.682Z,2.10
2018-04-24T17:31:32.228Z,2.33
2018-04-24T17:33:59.826Z,1.60
2018-04-24T17:36:28.173Z,2.67
2018-04-24T17:38:55.730Z,2.40
2018-04-24T17:41:23.587Z,1.90
2018-04-24T17:43:51.183Z,1.80
2018-04-24T17:46:19.483Z,2.57
2018-04-24T17:48:47.808Z,2.23
2018-04-24T17:51:15.331Z,2.50
2018-04-24T17:53:43.665Z,2.80
2018-04-24T17:56:11.713Z,3.17
2018-04-24T17:58:39.300Z,2.40
2018-04-24T18:01:06.865Z,2.27
2018-04-24T18:03:34.463Z,2.20
2018-04-24T18:06:02.204Z,3.47
2018-04-24T18:08:29.759Z,3.53
2018-04-24T18:10:57.346Z,2.67
2018-04-24T18:13:24.949Z,2.63
2018-04-24T18:15:53.338Z,2.80
2018-04-24T18:18:20.981Z,2.43
2018-04-24T18:20:48.572Z,2.40
2018-04-24T18:23:16.436Z,2.27
2018-04-24T18:25:44.737Z,3.17
2018-04-24T18:28:12.345Z,3.07
2018-04-24T18:30:40.807Z,3.07
2018-04-24T18:33:08.437Z,2.30
2018-04-24T18:35:36.780Z,2.77
2018-04-24T18:38:04.417Z,2.60
2018-04-24T18:40:32.065Z,2.17
2018-04-24T18:43:00.351Z,2.50
2018-04-24T18:45:27.954Z,2.10
2018-04-24T18:47:55.708Z,3.13
2018-04-24T18:50:23.486Z,2.60
2018-04-24T18:52:51.259Z,5.00
2018-04-24T18:55:19.124Z,5.63
2018-04-24T18:57:46.987Z,3.60
2018-04-24T19:00:14.873Z,3.37
2018-04-24T19:02:42.878Z,2.30
2018-04-24T19:05:12.449Z,3.47
2018-04-24T19:07:40.317Z,2.73
2018-04-24T19:10:08.196Z,3.00
2018-04-24T19:12:36.133Z,2.40
2018-04-24T19:15:04.757Z,2.83
2018-04-24T19:17:32.622Z,2.70
2018-04-24T19:20:01.382Z,3.17
2018-04-24T19:22:30.104Z,2.90
2018-04-24T19:25:17.671Z,2.77
2018-04-24T19:27:47.100Z,2.70
2018-04-24T19:30:14.911Z,3.30
2018-04-24T19:32:42.829Z,2.97
2018-04-24T19:35:11.250Z,2.50
2018-04-24T19:37:39.069Z,2.83
2018-04-24T19:40:12.872Z,2.70
2018-04-24T19:42:40.454Z,2.13
2018-04-24T19:45:09.004Z,3.10
2018-04-24T19:47:36.761Z,3.10
2018-04-24T19:50:10.143Z,2.17
2018-04-24T19:52:37.804Z,2.20
2018-04-24T19:55:11.038Z,2.57
2018-04-24T19:57:38.677Z,3.20
2018-04-24T20:00:06.324Z,2.77
2018-04-24T20:02:33.930Z,2.73
2018-04-24T20:05:02.498Z,2.37
2018-04-24T20:07:30.129Z,3.33
2018-04-24T20:09:58.710Z,2.57
2018-04-24T20:12:27.109Z,3.53
2018-04-24T20:14:54.678Z,3.20
2018-04-24T20:17:22.369Z,3.27
2018-04-24T20:19:49.918Z,2.97
2018-04-24T20:22:17.445Z,2.57
2018-04-24T20:24:45.004Z,3.40
2018-04-24T20:27:12.542Z,2.60
2018-04-24T20:29:40.107Z,2.73
2018-04-24T20:32:07.645Z,2.67
2018-04-24T20:34:35.176Z,3.40
2018-04-24T20:37:03.476Z,2.57
2018-04-24T20:39:31.047Z,3.13
2018-04-24T20:41:58.579Z,2.70
2018-04-24T20:44:26.918Z,3.57
2018-04-24T20:46:54.484Z,2.70
2018-04-24T20:49:21.990Z,2.80
2018-04-24T20:51:50.292Z,2.60
2018-04-24T20:54:18.610Z,2.87
2018-04-24T20:56:46.147Z,2.50
2018-04-24T20:59:13.708Z,2.43
2018-04-24T21:01:41.236Z,3.20
2018-04-24T21:04:08.783Z,3.03
2018-04-24T21:06:36.301Z,3.20
2018-04-24T21:09:03.884Z,3.20
2018-04-24T21:11:31.405Z,3.13
2018-04-24T21:13:58.920Z,6.27
2018-04-24T21:16:26.458Z,3.50
2018-04-24T21:18:53.992Z,9.17
2018-04-24T21:21:21.535Z,6.43
2018-04-24T21:23:49.054Z,6.17
2018-04-24T21:26:16.623Z,4.90
2018-04-24T21:28:44.185Z,4.70
2018-04-24T21:31:11.701Z,3.93
2018-04-24T21:33:39.238Z,4.03
2018-04-24T21:36:06.761Z,2.87
2018-04-24T21:38:35.083Z,2.30
2018-04-24T21:41:02.608Z,2.50
2018-04-24T21:43:30.927Z,2.17
2018-04-24T21:45:58.439Z,2.60
2018-04-24T21:48:26.721Z,2.90
2018-04-24T21:50:55.011Z,3.07
2018-04-24T21:53:23.288Z,3.17
2018-04-24T21:55:51.594Z,3.37
2018-04-24T21:58:19.106Z,2.60
2018-04-24T22:00:46.622Z,2.70
2018-04-24T22:03:14.148Z,2.83
2018-04-24T22:05:42.437Z,2.80
2018-04-24T22:08:10.730Z,2.40
2018-04-24T22:10:39.010Z,3.33
2018-04-24T22:13:07.296Z,2.53
2018-04-24T22:15:34.811Z,2.93
2018-04-24T22:18:02.333Z,2.77
2018-04-24T22:20:29.844Z,2.40
2018-04-24T22:22:57.361Z,3.13
2018-04-24T22:25:24.889Z,2.77
2018-04-24T22:27:52.417Z,3.17
2018-04-24T22:30:19.927Z,2.97
2018-04-24T22:32:48.210Z,2.93
2018-04-24T22:35:16.481Z,2.57
2018-04-24T22:37:44.015Z,3.17
2018-04-24T22:40:11.533Z,2.90
2018-04-24T22:42:39.066Z,3.00
2018-04-24T22:45:07.337Z,2.90
2018-04-24T22:47:34.870Z,2.57
2018-04-24T22:50:02.380Z,2.47
2018-04-24T22:52:30.659Z,2.37
2018-04-24T22:54:58.247Z,2.60
2018-04-24T22:57:25.777Z,3.80
2018-04-24T22:59:53.303Z,2.57
2018-04-24T23:02:20.831Z,2.87
2018-04-24T23:04:49.132Z,2.60
2018-04-24T23:07:16.641Z,2.80
2018-04-24T23:09:53.796Z,2.50
2018-04-24T23:12:33.215Z,3.40
2018-04-24T23:15:12.584Z,2.77
2018-04-24T23:17:51.936Z,3.10
2018-04-24T23:20:18.986Z,2.90
2018-04-24T23:22:46.517Z,2.77
2018-04-24T23:25:14.034Z,4.10
2018-04-24T23:27:42.340Z,2.47
2018-04-24T23:30:09.850Z,2.83
2018-04-24T23:32:37.382Z,2.57
2018-04-24T23:35:04.889Z,3.30
2018-04-24T23:37:32.412Z,2.70
2018-04-24T23:39:59.927Z,2.97
2018-04-24T23:42:27.452Z,2.90
2018-04-24T23:44:54.979Z,2.70
2018-04-24T23:47:22.520Z,2.50
2018-04-24T23:49:50.805Z,2.60
2018-04-24T23:52:19.121Z,3.00
2018-04-24T23:54:46.723Z,2.40
2018-04-24T23:57:14.187Z,2.10
2018-04-24T23:59:41.707Z,2.20
